createdAt,value
2022-10-01T00:02:02.190Z,4.70
2022-10-01T00:04:29.441Z,4.90
2022-10-01T00:06:56.589Z,5.37
2022-10-01T00:09:25.131Z,4.43
2022-10-01T00:11:52.219Z,4.73
2022-10-01T00:14:19.379Z,4.93
2022-10-01T00:16:46.557Z,4.80
2022-10-01T00:19:13.978Z,5.10
2022-10-01T00:21:41.092Z,5.67
2022-10-01T00:24:08.208Z,6.63
2022-10-01T00:26:37.025Z,5.40
2022-10-01T00:29:05.352Z,5.60
2022-10-01T00:31:33.190Z,6.40
2022-10-01T00:34:01.162Z,5.80
2022-10-01T00:36:28.238Z,6.30
2022-10-01T00:38:55.340Z,5.70
2022-10-01T00:41:22.452Z,6.10
2022-10-01T00:43:55.909Z,5.73
2022-10-01T00:46:24.308Z,6.73
2022-10-01T00:48:55.508Z,6.00
2022-10-01T00:51:22.875Z,6.10
2022-10-01T00:53:49.971Z,6.67
2022-10-01T00:56:17.144Z,6.37
2022-10-01T00:58:44.256Z,7.60
2022-10-01T01:01:12.749Z,7.47
2022-10-01T01:03:39.952Z,8.10
2022-10-01T01:06:07.003Z,7.40
2022-10-01T01:08:34.331Z,7.17
2022-10-01T01:11:04.604Z,6.87
2022-10-01T01:13:34.789Z,6.53
2022-10-01T01:16:05.744Z,8.70
2022-10-01T01:18:36.426Z,7.00
2022-10-01T01:21:13.649Z,7.53
2022-10-01T01:24:10.696Z,7.20
2022-10-01T01:26:46.234Z,7.80
2022-10-01T01:29:20.685Z,6.57
2022-10-01T01:31:48.588Z,7.20
2022-10-01T01:34:22.469Z,7.30
2022-10-01T01:36:52.763Z,7.83
2022-10-01T01:39:21.035Z,9.20
2022-10-01T01:41:50.530Z,7.23
2022-10-01T01:44:22.612Z,8.80
2022-10-01T01:46:50.381Z,8.10
2022-10-01T01:49:18.523Z,8.43
2022-10-01T01:51:48.338Z,8.50
2022-10-01T01:54:15.519Z,8.73
2022-10-01T01:56:42.592Z,7.30
2022-10-01T01:59:09.914Z,8.70
2022-10-01T02:01:39.770Z,8.33
2022-10-01T02:04:09.688Z,8.13
2022-10-01T02:06:44.668Z,8.10
2022-10-01T02:09:19.309Z,8.07
2022-10-01T02:11:52.752Z,7.33
2022-10-01T02:14:21.847Z,7.80
2022-10-01T02:16:53.353Z,8.47
2022-10-01T02:19:24.366Z,7.80
2022-10-01T02:21:55.887Z,7.43
2022-10-01T02:24:28.209Z,7.67
2022-10-01T02:26:56.220Z,7.90
2022-10-01T02:29:24.194Z,8.27
2022-10-01T02:31:53.582Z,7.10
2022-10-01T02:34:21.104Z,7.50
2022-10-01T02:36:49.558Z,7.10
2022-10-01T02:39:17.408Z,7.17
2022-10-01T02:41:46.622Z,8.07
2022-10-01T02:44:15.099Z,8.13
2022-10-01T02:46:44.056Z,7.73
2022-10-01T02:49:12.927Z,8.80
2022-10-01T02:51:44.803Z,7.30
2022-10-01T02:54:13.959Z,8.00
2022-10-01T02:56:48.567Z,7.13
2022-10-01T02:59:16.045Z,7.37
2022-10-01T03:01:43.292Z,7.77
2022-10-01T03:04:10.415Z,7.30
2022-10-01T03:06:38.873Z,6.93
2022-10-01T03:09:05.978Z,7.50
2022-10-01T03:11:33.274Z,6.80
2022-10-01T03:14:00.616Z,7.10
2022-10-01T03:16:27.772Z,6.77
2022-10-01T03:18:54.888Z,7.10
2022-10-01T03:21:21.975Z,6.97
2022-10-01T03:23:50.428Z,7.03
2022-10-01T03:26:17.550Z,6.80
2022-10-01T03:28:44.669Z,6.70
2022-10-01T03:31:12.051Z,6.23
2022-10-01T03:33:39.169Z,7.80
2022-10-01T03:36:06.386Z,6.33
2022-10-01T03:38:33.488Z,6.10
2022-10-01T03:41:01.953Z,5.87
2022-10-01T03:43:29.077Z,6.40
2022-10-01T03:45:56.588Z,6.00
2022-10-01T03:48:23.989Z,6.73
2022-10-01T03:50:54.854Z,7.30
2022-10-01T03:53:22.335Z,6.47
2022-10-01T03:55:49.593Z,6.43
2022-10-01T03:58:18.063Z,6.60
2022-10-01T04:00:45.303Z,6.63
2022-10-01T04:03:12.710Z,6.57
2022-10-01T04:05:39.903Z,5.87
2022-10-01T04:08:07.040Z,5.80
2022-10-01T04:10:34.317Z,7.20
2022-10-01T04:13:01.405Z,5.80
2022-10-01T04:15:29.842Z,5.40
2022-10-01T04:17:57.132Z,6.17
2022-10-01T04:20:24.261Z,4.20
2022-10-01T04:22:51.395Z,4.90
2022-10-01T04:25:18.489Z,3.80
2022-10-01T04:27:54.697Z,5.70
2022-10-01T04:30:22.200Z,4.67
2022-10-01T04:32:50.648Z,4.40
2022-10-01T04:35:17.761Z,5.23
2022-10-01T04:37:44.887Z,4.17
2022-10-01T04:40:11.978Z,3.53
2022-10-01T04:42:39.552Z,2.97
2022-10-01T04:45:07.308Z,3.17
2022-10-01T04:47:37.476Z,2.67
2022-10-01T04:50:06.929Z,3.07
2022-10-01T04:52:34.027Z,2.70
2022-10-01T04:55:01.133Z,2.70
2022-10-01T04:57:28.208Z,3.90
2022-10-01T04:59:55.330Z,2.20
2022-10-01T05:02:22.519Z,2.80
2022-10-01T05:04:49.680Z,2.00
2022-10-01T05:07:18.113Z,1.90
2022-10-01T05:09:45.201Z,1.90
2022-10-01T05:12:12.275Z,1.87
2022-10-01T05:14:39.366Z,1.83
2022-10-01T05:17:06.491Z,1.60
2022-10-01T05:19:33.596Z,1.67
2022-10-01T05:22:00.690Z,1.50
2022-10-01T05:24:29.101Z,1.30
2022-10-01T05:26:56.212Z,1.30
2022-10-01T05:29:23.301Z,1.03
2022-10-01T05:31:50.476Z,0.90
2022-10-01T05:34:17.606Z,1.03
2022-10-01T05:36:44.684Z,0.90
2022-10-01T05:39:11.799Z,1.00
2022-10-01T05:41:40.421Z,1.00
2022-10-01T05:44:07.506Z,0.67
2022-10-01T05:46:34.610Z,0.70
2022-10-01T05:49:01.764Z,0.70
2022-10-01T05:51:28.851Z,0.80
2022-10-01T05:53:56.323Z,0.60
2022-10-01T05:56:23.428Z,0.70
2022-10-01T05:58:51.945Z,0.80
2022-10-01T06:01:19.036Z,0.70
2022-10-01T06:03:46.115Z,0.80
2022-10-01T06:06:13.229Z,0.70
2022-10-01T06:08:40.305Z,0.70
2022-10-01T06:11:07.422Z,0.83
2022-10-01T06:13:36.141Z,0.73
2022-10-01T06:16:04.706Z,0.80
2022-10-01T06:18:31.850Z,0.90
2022-10-01T06:20:59.333Z,0.83
2022-10-01T06:23:26.411Z,0.70
2022-10-01T06:25:53.545Z,0.90
2022-10-01T06:28:20.843Z,0.90
2022-10-01T06:30:47.934Z,0.80
2022-10-01T06:33:17.820Z,1.10
2022-10-01T06:35:45.934Z,1.00
2022-10-01T06:38:13.304Z,1.10
2022-10-01T06:40:41.180Z,1.20
2022-10-01T06:43:08.531Z,1.27
2022-10-01T06:45:36.805Z,1.30
2022-10-01T06:48:04.318Z,1.50
2022-10-01T06:50:33.133Z,1.40
2022-10-01T06:53:00.338Z,1.30
2022-10-01T06:55:28.507Z,1.40
2022-10-01T06:57:55.683Z,1.53
2022-10-01T07:00:23.322Z,1.00
2022-10-01T07:02:50.488Z,1.30
2022-10-01T07:05:18.319Z,1.10
2022-10-01T07:07:46.798Z,0.80
2022-10-01T07:10:13.860Z,0.80
2022-10-01T07:12:40.942Z,1.00
2022-10-01T07:15:08.976Z,1.10
2022-10-01T07:17:43.028Z,1.37
2022-10-01T07:20:10.145Z,0.90
2022-10-01T07:22:37.222Z,1.10
2022-10-01T07:25:06.383Z,1.10
2022-10-01T07:27:33.466Z,1.00
2022-10-01T07:30:00.589Z,1.40
2022-10-01T07:32:27.737Z,1.60
2022-10-01T07:34:54.823Z,1.30
2022-10-01T07:37:22.052Z,1.20
2022-10-01T07:39:49.202Z,1.40
2022-10-01T07:42:17.710Z,1.30
2022-10-01T07:44:44.812Z,1.30
2022-10-01T07:47:11.949Z,1.30
2022-10-01T07:49:39.030Z,1.40
2022-10-01T07:52:09.674Z,1.33
2022-10-01T07:54:39.514Z,0.83
2022-10-01T07:57:06.633Z,1.00
2022-10-01T07:59:35.072Z,1.00
2022-10-01T08:02:02.306Z,1.03
2022-10-01T08:04:29.381Z,1.10
2022-10-01T08:06:56.486Z,0.80
2022-10-01T08:09:23.572Z,1.00
2022-10-01T08:11:50.675Z,0.90
2022-10-01T08:14:17.765Z,1.00
2022-10-01T08:16:46.477Z,0.80
2022-10-01T08:19:13.681Z,0.80
2022-10-01T08:21:40.761Z,1.30
2022-10-01T08:24:07.910Z,1.03
2022-10-01T08:26:35.159Z,0.97
2022-10-01T08:29:02.260Z,0.90
2022-10-01T08:31:29.421Z,1.23
2022-10-01T08:33:57.917Z,0.87
2022-10-01T08:36:25.028Z,1.00
2022-10-01T08:38:52.136Z,1.30
2022-10-01T08:41:34.986Z,1.10
2022-10-01T08:44:03.122Z,1.37
2022-10-01T08:46:31.545Z,1.00
2022-10-01T08:49:03.136Z,1.00
2022-10-01T08:51:33.553Z,0.90
2022-10-01T08:54:04.806Z,1.03
2022-10-01T08:56:34.742Z,1.00
2022-10-01T08:59:04.308Z,1.27
2022-10-01T09:01:31.708Z,1.67
2022-10-01T09:04:00.528Z,1.07
2022-10-01T09:06:28.280Z,1.17
2022-10-01T09:09:03.253Z,1.17
2022-10-01T09:11:36.958Z,1.30
2022-10-01T09:14:15.436Z,1.30
2022-10-01T09:16:47.027Z,1.13
2022-10-01T09:19:23.505Z,1.20
2022-10-01T09:21:56.110Z,1.73
2022-10-01T09:24:26.775Z,1.90
2022-10-01T09:26:54.395Z,1.60
2022-10-01T09:29:24.455Z,2.10
2022-10-01T09:31:52.696Z,1.83
2022-10-01T09:34:24.975Z,2.30
2022-10-01T09:36:57.521Z,2.03
2022-10-01T09:39:26.959Z,1.80
2022-10-01T09:41:54.203Z,3.07
2022-10-01T09:44:23.579Z,3.13
2022-10-01T09:46:50.694Z,3.30
2022-10-01T09:49:22.921Z,2.90
2022-10-01T09:51:54.018Z,2.60
2022-10-01T09:54:25.781Z,3.30
2022-10-01T09:56:55.667Z,3.70
2022-10-01T09:59:24.559Z,3.10
2022-10-01T10:01:53.844Z,2.90
2022-10-01T10:04:21.496Z,2.60
2022-10-01T10:06:48.707Z,2.73
2022-10-01T10:09:18.089Z,2.87
2022-10-01T10:11:45.321Z,2.80
2022-10-01T10:14:16.605Z,2.90
2022-10-01T10:16:45.333Z,3.00
2022-10-01T10:19:16.378Z,2.30
2022-10-01T10:21:50.299Z,2.93
2022-10-01T10:24:23.906Z,2.87
2022-10-01T10:26:53.575Z,3.40
2022-10-01T10:29:25.801Z,1.70
2022-10-01T10:31:54.650Z,1.60
2022-10-01T10:34:22.773Z,2.10
2022-10-01T10:36:56.545Z,1.87
2022-10-01T10:39:26.213Z,2.70
2022-10-01T10:41:53.897Z,2.00
2022-10-01T10:44:22.094Z,1.70
2022-10-01T10:46:50.156Z,1.57
2022-10-01T10:49:18.771Z,1.27
2022-10-01T10:51:46.763Z,1.77
2022-10-01T10:54:18.284Z,1.93
2022-10-01T10:56:53.400Z,2.07
2022-10-01T10:59:20.489Z,2.87
2022-10-01T11:01:48.527Z,2.37
2022-10-01T11:04:20.702Z,2.93
2022-10-01T11:06:54.484Z,2.27
2022-10-01T11:09:23.343Z,3.03
2022-10-01T11:11:54.210Z,3.00
2022-10-01T11:14:30.005Z,2.80
2022-10-01T11:17:05.897Z,2.87
2022-10-01T11:19:50.590Z,3.30
2022-10-01T11:22:30.265Z,2.87
2022-10-01T11:25:05.086Z,3.13
2022-10-01T11:27:35.559Z,3.27
2022-10-01T11:30:07.945Z,2.77
2022-10-01T11:32:38.317Z,2.63
2022-10-01T11:35:17.538Z,3.67
2022-10-01T11:37:48.834Z,3.00
2022-10-01T11:40:18.244Z,2.70
2022-10-01T11:42:46.369Z,2.77
2022-10-01T11:45:18.434Z,2.83
2022-10-01T11:47:49.705Z,3.00
2022-10-01T11:50:19.032Z,2.70
2022-10-01T11:52:48.748Z,3.33
2022-10-01T11:55:19.529Z,2.50
2022-10-01T11:57:48.005Z,2.60
2022-10-01T12:00:16.589Z,2.57
2022-10-01T12:02:48.885Z,2.60
2022-10-01T12:05:17.376Z,3.27
2022-10-01T12:07:46.343Z,3.03
2022-10-01T12:10:18.630Z,2.47
2022-10-01T12:12:48.934Z,2.80
2022-10-01T12:15:19.771Z,2.40
2022-10-01T12:17:49.587Z,3.13
2022-10-01T12:20:20.015Z,3.60
2022-10-01T12:22:48.205Z,2.97
2022-10-01T12:25:15.346Z,2.50
2022-10-01T12:27:54.660Z,2.23
2022-10-01T12:30:24.058Z,2.67
2022-10-01T12:32:58.273Z,2.60
2022-10-01T12:35:33.021Z,2.60
2022-10-01T12:38:06.209Z,2.13
2022-10-01T12:40:36.301Z,2.20
2022-10-01T12:43:11.514Z,1.80
2022-10-01T12:45:43.830Z,2.10
2022-10-01T12:48:14.360Z,2.37
2022-10-01T12:50:45.599Z,2.10
2022-10-01T12:53:18.616Z,2.63
2022-10-01T12:56:03.509Z,2.40
2022-10-01T12:58:51.515Z,2.77
2022-10-01T13:01:26.458Z,2.63
2022-10-01T13:04:04.655Z,3.03
2022-10-01T13:06:37.126Z,3.30
2022-10-01T13:09:09.729Z,3.10
2022-10-01T13:11:47.865Z,2.87
2022-10-01T13:14:16.142Z,3.63
2022-10-01T13:16:49.577Z,3.30
2022-10-01T13:19:18.150Z,3.43
2022-10-01T13:22:00.635Z,3.37
2022-10-01T13:24:32.743Z,2.70
2022-10-01T13:27:01.627Z,2.90
2022-10-01T13:29:36.653Z,2.57
2022-10-01T13:32:23.668Z,2.53
2022-10-01T13:34:50.778Z,2.50
2022-10-01T13:37:18.824Z,2.70
2022-10-01T13:39:46.615Z,2.47
2022-10-01T13:42:17.460Z,2.43
2022-10-01T13:44:44.603Z,2.30
2022-10-01T13:47:18.603Z,2.00
2022-10-01T13:49:53.369Z,3.03
2022-10-01T13:52:20.611Z,3.03
2022-10-01T13:54:49.990Z,2.83
2022-10-01T13:57:27.541Z,2.60
2022-10-01T13:59:58.658Z,2.00
2022-10-01T14:02:31.588Z,3.43
2022-10-01T14:05:20.832Z,2.97
2022-10-01T14:07:48.336Z,3.10
2022-10-01T14:10:16.224Z,2.10
2022-10-01T14:12:45.458Z,2.10
2022-10-01T14:15:15.310Z,1.70
2022-10-01T14:17:44.091Z,1.87
2022-10-01T14:20:17.645Z,2.30
2022-10-01T14:23:02.777Z,2.10
2022-10-01T14:25:32.977Z,2.47
2022-10-01T14:28:09.121Z,2.87
2022-10-01T14:30:38.872Z,2.67
2022-10-01T14:33:14.752Z,3.33
2022-10-01T14:35:45.042Z,2.50
2022-10-01T14:38:13.250Z,3.33
2022-10-01T14:40:41.438Z,3.30
2022-10-01T14:43:15.754Z,2.90
2022-10-01T14:45:50.310Z,2.70
2022-10-01T14:48:18.737Z,3.13
2022-10-01T14:50:49.292Z,2.57
2022-10-01T14:53:17.687Z,2.60
2022-10-01T14:55:45.271Z,2.23
2022-10-01T14:58:18.464Z,2.87
2022-10-01T15:00:48.677Z,2.87
2022-10-01T15:03:15.824Z,3.13
2022-10-01T15:05:45.138Z,2.53
2022-10-01T15:08:13.572Z,2.97
2022-10-01T15:10:41.500Z,3.00
2022-10-01T15:13:08.855Z,3.30
2022-10-01T15:15:39.996Z,2.57
2022-10-01T15:18:07.307Z,2.23
2022-10-01T15:20:34.859Z,2.60
2022-10-01T15:23:05.742Z,2.77
2022-10-01T15:25:33.101Z,2.90
2022-10-01T15:28:00.340Z,3.70
2022-10-01T15:30:28.100Z,2.30
2022-10-01T15:32:55.328Z,2.70
2022-10-01T15:35:23.038Z,3.30
2022-10-01T15:37:50.707Z,2.70
2022-10-01T15:40:23.883Z,2.37
2022-10-01T15:43:12.792Z,3.47
2022-10-01T15:45:39.860Z,2.33
2022-10-01T15:48:19.851Z,2.50
2022-10-01T15:50:57.283Z,2.37
2022-10-01T15:53:24.456Z,2.73
2022-10-01T15:55:53.743Z,2.93
2022-10-01T15:58:22.321Z,2.33
2022-10-01T16:00:59.141Z,2.33
2022-10-01T16:03:27.883Z,2.20
2022-10-01T16:05:55.683Z,2.13
2022-10-01T16:08:24.704Z,1.87
2022-10-01T16:11:06.678Z,2.30
2022-10-01T16:13:37.540Z,2.03
2022-10-01T16:16:07.343Z,2.17
2022-10-01T16:18:34.508Z,3.83
2022-10-01T16:21:01.599Z,2.73
2022-10-01T16:23:49.631Z,2.03
2022-10-01T16:26:30.001Z,2.33
2022-10-01T16:29:00.742Z,2.10
2022-10-01T16:31:28.125Z,2.50
2022-10-01T16:33:55.311Z,2.97
2022-10-01T16:36:22.616Z,1.70
2022-10-01T16:38:49.722Z,2.10
2022-10-01T16:41:19.560Z,2.23
2022-10-01T16:43:46.668Z,2.40
2022-10-01T16:46:15.118Z,2.07
2022-10-01T16:48:42.233Z,2.07
2022-10-01T16:51:09.291Z,2.80
2022-10-01T16:53:36.405Z,2.73
2022-10-01T16:56:03.529Z,2.10
2022-10-01T16:58:30.595Z,2.17
2022-10-01T17:00:57.949Z,2.40
2022-10-01T17:03:26.488Z,2.20
2022-10-01T17:05:53.712Z,2.47
2022-10-01T17:08:20.788Z,2.30
2022-10-01T17:10:48.810Z,3.57
2022-10-01T17:13:16.190Z,2.03
2022-10-01T17:15:43.675Z,2.53
2022-10-01T17:18:10.798Z,2.07
2022-10-01T17:20:39.250Z,2.20
2022-10-01T17:23:06.466Z,2.60
2022-10-01T17:25:34.529Z,2.33
2022-10-01T17:28:02.352Z,2.50
2022-10-01T17:30:29.516Z,2.63
2022-10-01T17:32:56.973Z,2.70
2022-10-01T17:35:24.077Z,2.07
2022-10-01T17:37:52.686Z,2.00
2022-10-01T17:40:19.963Z,2.30
2022-10-01T17:42:47.052Z,2.30
2022-10-01T17:45:14.676Z,2.30
2022-10-01T17:47:45.063Z,1.83
2022-10-01T17:50:12.174Z,3.70
2022-10-01T17:52:39.262Z,1.90
2022-10-01T17:55:08.476Z,2.00
2022-10-01T17:57:35.579Z,2.63
2022-10-01T18:00:02.841Z,2.23
2022-10-01T18:02:43.298Z,2.10
2022-10-01T18:05:11.275Z,3.10
2022-10-01T18:07:38.425Z,2.10
2022-10-01T18:10:05.885Z,2.30
2022-10-01T18:12:34.641Z,2.23
2022-10-01T18:15:02.007Z,2.17
2022-10-01T18:17:29.437Z,2.67
2022-10-01T18:19:56.533Z,2.60
2022-10-01T18:22:23.611Z,2.37
2022-10-01T18:24:50.769Z,2.63
2022-10-01T18:27:17.954Z,2.47
2022-10-01T18:29:46.410Z,2.63
2022-10-01T18:32:16.521Z,2.93
2022-10-01T18:34:46.399Z,2.83
2022-10-01T18:37:20.514Z,4.30
2022-10-01T18:39:49.756Z,2.77
2022-10-01T18:42:19.770Z,2.50
2022-10-01T18:44:51.401Z,2.70
2022-10-01T18:47:22.810Z,3.20
2022-10-01T18:50:02.611Z,2.63
2022-10-01T18:52:35.540Z,2.33
2022-10-01T18:55:21.496Z,3.00
2022-10-01T18:57:55.225Z,3.10
2022-10-01T19:00:23.738Z,3.30
2022-10-01T19:03:12.676Z,3.07
2022-10-01T19:05:45.155Z,2.47
2022-10-01T19:08:17.510Z,3.00
2022-10-01T19:10:49.121Z,2.17
2022-10-01T19:13:18.291Z,3.13
2022-10-01T19:15:53.087Z,2.73
2022-10-01T19:18:28.995Z,3.00
2022-10-01T19:21:03.725Z,3.50
2022-10-01T19:23:37.506Z,3.20
2022-10-01T19:26:08.174Z,3.63
2022-10-01T19:28:41.700Z,2.50
2022-10-01T19:31:15.704Z,3.30
2022-10-01T19:33:45.260Z,2.90
2022-10-01T19:36:17.076Z,3.07
2022-10-01T19:38:45.671Z,3.10
2022-10-01T19:41:14.729Z,3.57
2022-10-01T19:43:45.378Z,3.23
2022-10-01T19:46:15.438Z,3.67
2022-10-01T19:48:45.131Z,3.70
2022-10-01T19:51:13.533Z,2.63
2022-10-01T19:53:43.043Z,3.57
2022-10-01T19:56:11.568Z,3.00
2022-10-01T19:58:38.652Z,2.57
2022-10-01T20:01:05.857Z,2.67
2022-10-01T20:03:37.269Z,3.20
2022-10-01T20:06:06.053Z,3.23
2022-10-01T20:08:34.747Z,3.43
2022-10-01T20:11:04.329Z,3.10
2022-10-01T20:13:36.510Z,3.10
2022-10-01T20:16:08.349Z,3.83
2022-10-01T20:18:39.295Z,3.23
2022-10-01T20:21:23.620Z,4.10
2022-10-01T20:23:56.169Z,4.20
2022-10-01T20:26:26.173Z,4.63
2022-10-01T20:29:12.277Z,5.23
2022-10-01T20:31:42.055Z,4.63
2022-10-01T20:34:16.926Z,4.63
2022-10-01T20:36:46.360Z,3.40
2022-10-01T20:39:16.665Z,4.30
2022-10-01T20:41:45.677Z,4.23
2022-10-01T20:44:15.677Z,3.50
2022-10-01T20:46:44.406Z,4.73
2022-10-01T20:49:18.309Z,4.27
2022-10-01T20:51:50.730Z,5.40
2022-10-01T20:54:19.900Z,3.07
2022-10-01T20:56:57.073Z,3.90
2022-10-01T20:59:27.591Z,3.47
2022-10-01T21:01:57.365Z,4.03
2022-10-01T21:04:28.008Z,3.63
2022-10-01T21:06:56.477Z,3.90
2022-10-01T21:09:27.368Z,4.30
2022-10-01T21:11:56.122Z,4.70
2022-10-01T21:14:24.457Z,4.27
2022-10-01T21:17:03.754Z,5.33
2022-10-01T21:19:43.966Z,4.00
2022-10-01T21:22:17.174Z,4.23
2022-10-01T21:24:52.151Z,4.23
2022-10-01T21:27:30.200Z,4.10
2022-10-01T21:30:02.829Z,4.03
2022-10-01T21:32:34.854Z,4.27
2022-10-01T21:35:06.167Z,4.10
2022-10-01T21:37:34.069Z,4.67
2022-10-01T21:40:05.588Z,3.60
2022-10-01T21:42:39.065Z,4.53
2022-10-01T21:45:11.940Z,4.23
2022-10-01T21:47:47.683Z,4.43
2022-10-01T21:50:20.458Z,3.50
2022-10-01T21:52:53.351Z,4.27
2022-10-01T21:55:26.468Z,4.47
2022-10-01T21:58:02.780Z,5.13
2022-10-01T22:00:29.948Z,5.30
2022-10-01T22:02:59.682Z,4.23
2022-10-01T22:05:30.689Z,4.17
2022-10-01T22:08:04.801Z,4.63
2022-10-01T22:10:34.538Z,4.27
2022-10-01T22:13:03.672Z,4.60
2022-10-01T22:15:33.280Z,3.17
2022-10-01T22:18:02.657Z,3.70
2022-10-01T22:20:32.812Z,4.80
2022-10-01T22:23:01.440Z,4.20
2022-10-01T22:25:29.403Z,4.60
2022-10-01T22:27:59.639Z,4.40
2022-10-01T22:30:27.640Z,4.10
2022-10-01T22:32:57.147Z,5.30
2022-10-01T22:35:26.758Z,4.10
2022-10-01T22:37:57.362Z,4.93
2022-10-01T22:40:27.710Z,4.47
2022-10-01T22:42:59.194Z,5.17
2022-10-01T22:45:29.312Z,5.33
2022-10-01T22:48:04.532Z,4.87
2022-10-01T22:50:41.523Z,5.50
2022-10-01T22:53:15.470Z,4.80
2022-10-01T22:55:46.409Z,4.80
2022-10-01T22:58:25.309Z,5.40
2022-10-01T23:00:57.881Z,5.67
2022-10-01T23:03:28.883Z,5.43
2022-10-01T23:05:59.090Z,5.17
2022-10-01T23:08:30.480Z,4.30
2022-10-01T23:11:02.141Z,4.43
2022-10-01T23:13:33.626Z,4.93
2022-10-01T23:16:06.664Z,5.80
2022-10-01T23:18:38.214Z,4.43
2022-10-01T23:21:09.344Z,4.63
2022-10-01T23:23:37.788Z,5.17
2022-10-01T23:26:23.292Z,4.90
2022-10-01T23:28:58.779Z,5.10
2022-10-01T23:31:28.453Z,6.13
2022-10-01T23:34:00.682Z,5.40
2022-10-01T23:36:33.155Z,5.70
2022-10-01T23:39:11.971Z,6.00
2022-10-01T23:41:41.819Z,5.57
2022-10-01T23:44:12.248Z,4.77
2022-10-01T23:46:40.325Z,5.00
2022-10-01T23:49:11.778Z,7.27
2022-10-01T23:51:41.446Z,4.80
2022-10-01T23:54:13.440Z,5.90
2022-10-01T23:56:42.932Z,4.93
2022-10-01T23:59:13.359Z,6.70
